createdAt,value
2023-04-11T00:02:09.684Z,83.37
2023-04-11T00:04:23.879Z,83.44
2023-04-11T00:06:36.630Z,83.40
2023-04-11T00:08:49.487Z,83.44
2023-04-11T00:11:03.681Z,83.36
2023-04-11T00:13:16.441Z,83.29
2023-04-11T00:15:33.766Z,83.35
2023-04-11T00:17:46.838Z,83.18
2023-04-11T00:20:02.777Z,83.07
2023-04-11T00:22:17.272Z,83.29
2023-04-11T00:24:29.865Z,83.47
2023-04-11T00:26:42.764Z,83.42
2023-04-11T00:28:56.326Z,83.76
2023-04-11T00:31:10.463Z,83.80
2023-04-11T00:33:23.341Z,83.72
2023-04-11T00:35:39.066Z,83.65
2023-04-11T00:37:57.042Z,83.48
2023-04-11T00:40:13.391Z,83.67
2023-04-11T00:42:26.437Z,83.49
2023-04-11T00:44:39.113Z,83.67
2023-04-11T00:46:52.315Z,83.77
2023-04-11T00:49:05.522Z,83.88
2023-04-11T00:51:19.168Z,84.11
2023-04-11T00:53:33.932Z,83.77
2023-04-11T00:55:46.828Z,83.93
2023-04-11T00:57:59.948Z,83.85
2023-04-11T01:00:14.464Z,83.90
2023-04-11T01:02:27.908Z,84.03
2023-04-11T01:04:41.393Z,84.04
2023-04-11T01:06:57.581Z,84.33
2023-04-11T01:09:10.318Z,84.30
2023-04-11T01:11:23.692Z,84.20
2023-04-11T01:13:37.661Z,84.26
2023-04-11T01:15:50.343Z,84.19
2023-04-11T01:18:03.235Z,84.31
2023-04-11T01:20:17.030Z,84.27
2023-04-11T01:22:31.444Z,84.30
2023-04-11T01:24:45.011Z,84.29
2023-04-11T01:26:57.931Z,84.20
2023-04-11T01:29:13.414Z,84.18
2023-04-11T01:31:26.095Z,84.02
2023-04-11T01:33:38.904Z,83.91
2023-04-11T01:35:51.749Z,84.09
2023-04-11T01:38:06.512Z,84.26
2023-04-11T01:40:20.351Z,84.11
2023-04-11T01:42:34.008Z,84.04
2023-04-11T01:44:47.628Z,84.29
2023-04-11T01:47:00.605Z,84.29
2023-04-11T01:49:16.664Z,83.79
2023-04-11T01:51:30.241Z,83.44
2023-04-11T01:53:43.211Z,83.17
2023-04-11T01:55:56.238Z,82.81
2023-04-11T01:58:09.071Z,82.47
2023-04-11T02:00:23.208Z,82.26
2023-04-11T02:02:37.033Z,81.78
2023-04-11T02:04:50.011Z,81.89
2023-04-11T02:07:02.734Z,81.93
2023-04-11T02:09:15.841Z,81.68
2023-04-11T02:11:28.654Z,81.75
2023-04-11T02:13:41.547Z,81.80
2023-04-11T02:15:54.150Z,81.90
2023-04-11T02:18:06.925Z,81.81
2023-04-11T02:20:20.304Z,82.11
2023-04-11T02:22:32.929Z,82.11
2023-04-11T02:24:47.637Z,82.07
2023-04-11T02:27:00.235Z,81.86
2023-04-11T02:29:13.169Z,82.02
2023-04-11T02:31:26.059Z,82.19
2023-04-11T02:33:39.071Z,81.81
2023-04-11T02:35:51.850Z,81.96
2023-04-11T02:38:05.214Z,81.54
2023-04-11T02:40:19.505Z,81.80
2023-04-11T02:42:32.040Z,81.97
2023-04-11T02:44:44.815Z,81.75
2023-04-11T02:46:57.617Z,81.66
2023-04-11T02:49:10.984Z,81.66
2023-04-11T02:51:24.239Z,81.16
2023-04-11T02:53:37.481Z,81.59
2023-04-11T02:55:50.458Z,81.27
2023-04-11T02:58:03.492Z,81.18
2023-04-11T03:00:17.976Z,81.17
2023-04-11T03:02:34.798Z,81.13
2023-04-11T03:04:49.891Z,81.19
2023-04-11T03:07:04.277Z,81.13
2023-04-11T03:09:17.061Z,81.32
2023-04-11T03:11:32.061Z,81.32
2023-04-11T03:13:46.196Z,81.15
2023-04-11T03:15:59.219Z,81.19
2023-04-11T03:18:14.734Z,81.24
2023-04-11T03:20:29.922Z,81.32
2023-04-11T03:22:43.008Z,81.38
2023-04-11T03:24:56.576Z,81.55
2023-04-11T03:27:10.516Z,81.64
2023-04-11T03:29:24.307Z,81.60
2023-04-11T03:31:45.536Z,81.54
2023-04-11T03:34:00.388Z,81.73
2023-04-11T03:36:14.154Z,81.74
2023-04-11T03:38:27.200Z,81.77
2023-04-11T03:40:40.047Z,82.10
2023-04-11T03:43:04.700Z,81.74
2023-04-11T03:45:22.906Z,81.73
2023-04-11T03:47:36.832Z,81.70
2023-04-11T03:49:51.879Z,81.64
2023-04-11T03:52:06.001Z,81.50
2023-04-11T03:54:27.459Z,81.68
2023-04-11T03:56:59.220Z,81.64
2023-04-11T03:59:13.309Z,81.59
2023-04-11T04:01:39.281Z,81.63
2023-04-11T04:03:52.318Z,81.64
2023-04-11T04:06:05.535Z,81.58
2023-04-11T04:08:18.551Z,81.61
2023-04-11T04:10:34.787Z,81.62
2023-04-11T04:12:47.736Z,81.45
2023-04-11T04:15:05.485Z,81.52
2023-04-11T04:17:19.380Z,81.52
2023-04-11T04:19:32.925Z,81.64
2023-04-11T04:21:47.053Z,81.28
2023-04-11T04:24:04.882Z,81.40
2023-04-11T04:26:33.889Z,81.37
2023-04-11T04:29:05.970Z,81.33
2023-04-11T04:31:36.336Z,81.08
2023-04-11T04:33:54.087Z,81.25
2023-04-11T04:36:13.410Z,81.21
2023-04-11T04:38:27.149Z,81.32
2023-04-11T04:40:43.119Z,81.43
2023-04-11T04:43:04.079Z,81.40
2023-04-11T04:57:16.868Z,81.38
2023-04-11T04:59:32.736Z,81.30
2023-04-11T05:01:54.817Z,81.39
2023-04-11T05:04:47.037Z,81.51
2023-04-11T05:07:26.164Z,81.60
2023-04-11T05:10:01.382Z,81.42
2023-04-11T05:12:14.847Z,81.59
2023-04-11T05:14:45.364Z,81.47
2023-04-11T05:17:07.522Z,81.65
2023-04-11T05:19:40.625Z,81.42
2023-04-11T05:22:14.676Z,81.30
2023-04-11T05:24:34.209Z,81.37
2023-04-11T05:27:07.108Z,81.45
2023-04-11T05:29:20.452Z,81.67
2023-04-11T05:31:33.775Z,81.54
2023-04-11T05:33:46.749Z,81.63
2023-04-11T05:35:59.778Z,81.64
2023-04-11T05:38:12.718Z,81.36
2023-04-11T05:40:25.580Z,81.81
2023-04-11T05:42:38.208Z,81.67
2023-04-11T05:44:51.400Z,81.67
2023-04-11T05:47:04.564Z,81.67
2023-04-11T05:49:18.227Z,81.91
2023-04-11T05:51:33.107Z,81.93
2023-04-11T05:53:45.913Z,81.96
2023-04-11T05:55:58.372Z,82.01
2023-04-11T05:58:13.087Z,81.94
2023-04-11T06:00:29.630Z,82.02
2023-04-11T06:02:43.170Z,82.21
2023-04-11T06:04:55.829Z,82.19
2023-04-11T06:07:09.446Z,82.08
2023-04-11T06:09:22.449Z,81.96
2023-04-11T06:11:34.962Z,81.70
2023-04-11T06:13:47.740Z,81.84
2023-04-11T06:16:00.992Z,81.94
2023-04-11T06:18:14.056Z,81.77
2023-04-11T06:20:27.032Z,81.58
2023-04-11T06:22:41.390Z,81.43
2023-04-11T06:25:06.164Z,81.64
2023-04-11T06:27:19.841Z,81.49
2023-04-11T06:29:33.010Z,81.62
2023-04-11T06:31:49.883Z,81.53
2023-04-11T06:34:03.194Z,81.78
2023-04-11T06:36:16.999Z,81.50
2023-04-11T06:38:55.881Z,81.42
2023-04-11T06:41:28.662Z,81.44
2023-04-11T06:43:55.404Z,81.33
2023-04-11T06:46:27.635Z,81.31
2023-04-11T06:49:00.592Z,81.40
2023-04-11T06:51:34.259Z,81.38
2023-04-11T06:53:46.865Z,81.45
2023-04-11T06:56:00.902Z,81.41
2023-04-11T06:58:14.039Z,81.52
2023-04-11T07:00:27.693Z,81.60
2023-04-11T07:02:46.123Z,81.66
2023-04-11T07:05:10.294Z,81.53
2023-04-11T07:07:22.779Z,81.65
2023-04-11T07:09:48.220Z,81.83
2023-04-11T07:12:11.505Z,81.74
2023-04-11T07:14:44.487Z,81.85
2023-04-11T07:16:57.453Z,81.76
2023-04-11T07:19:10.592Z,81.79
2023-04-11T07:21:26.558Z,81.86
2023-04-11T07:23:59.215Z,81.81
2023-04-11T07:26:12.929Z,81.74
2023-04-11T07:28:47.183Z,81.81
2023-04-11T07:31:00.622Z,81.78
2023-04-11T07:33:13.536Z,81.87
2023-04-11T07:35:26.386Z,81.83
2023-04-11T07:37:46.555Z,81.94
2023-04-11T07:40:13.069Z,82.06
2023-04-11T07:42:26.039Z,82.04
2023-04-11T07:44:47.473Z,82.11
2023-04-11T07:47:00.249Z,82.03
2023-04-11T07:49:13.469Z,82.02
2023-04-11T07:51:38.078Z,81.78
2023-04-11T07:54:11.227Z,81.94
2023-04-11T07:56:24.101Z,82.17
2023-04-11T07:58:58.179Z,82.04
2023-04-11T08:01:30.739Z,82.16
2023-04-11T08:03:43.766Z,81.92
2023-04-11T08:06:00.665Z,81.87
2023-04-11T08:08:14.996Z,81.95
2023-04-11T08:10:37.933Z,82.35
2023-04-11T08:12:54.100Z,82.20
2023-04-11T08:15:06.973Z,82.19
2023-04-11T08:17:30.134Z,82.41
2023-04-11T08:20:03.492Z,82.27
2023-04-11T08:22:16.615Z,82.37
2023-04-11T08:24:39.133Z,82.30
2023-04-11T08:26:54.735Z,82.79
2023-04-11T08:29:17.989Z,82.57
2023-04-11T08:31:45.410Z,82.61
2023-04-11T08:34:19.045Z,82.44
2023-04-11T08:36:32.299Z,82.80
2023-04-11T08:38:48.736Z,82.76
2023-04-11T08:41:21.497Z,82.81
2023-04-11T08:43:54.903Z,83.02
2023-04-11T08:46:12.814Z,82.95
2023-04-11T08:48:29.513Z,82.94
2023-04-11T08:50:42.794Z,83.04
2023-04-11T08:52:59.987Z,83.06
2023-04-11T08:55:28.299Z,83.02
2023-04-11T08:57:41.162Z,83.27
2023-04-11T09:00:15.641Z,83.22
2023-04-11T09:02:38.615Z,83.49
2023-04-11T09:05:01.592Z,83.44
2023-04-11T09:07:50.990Z,83.42
2023-04-11T09:10:29.542Z,83.38
2023-04-11T09:12:42.701Z,83.42
2023-04-11T09:15:24.175Z,83.30
2023-04-11T09:17:46.293Z,83.48
2023-04-11T09:20:22.111Z,83.58
2023-04-11T09:22:43.429Z,83.71
2023-04-11T09:25:08.037Z,83.61
2023-04-11T09:27:27.269Z,83.69
2023-04-11T09:29:53.899Z,83.66
2023-04-11T09:32:10.405Z,83.66
2023-04-11T09:34:33.867Z,83.69
2023-04-11T09:37:06.906Z,83.41
2023-04-11T09:39:30.611Z,83.39
2023-04-11T09:42:04.375Z,83.44
2023-04-11T09:44:20.715Z,83.28
2023-04-11T09:47:05.813Z,83.42
2023-04-11T09:49:23.905Z,83.61
2023-04-11T09:51:57.382Z,83.51
2023-04-11T09:54:32.905Z,83.53
2023-04-11T09:56:57.361Z,83.50
2023-04-11T09:59:14.322Z,83.48
2023-04-11T10:02:17.000Z,83.62
2023-04-11T10:04:32.276Z,83.62
2023-04-11T10:06:50.920Z,83.45
2023-04-11T10:09:12.058Z,83.46
2023-04-11T10:11:24.911Z,83.64
2023-04-11T10:13:53.167Z,83.48
2023-04-11T10:16:16.882Z,83.53
2023-04-11T10:18:29.532Z,83.44
2023-04-11T10:20:54.716Z,83.44
2023-04-11T10:23:08.789Z,83.71
2023-04-11T10:25:26.323Z,83.82
2023-04-11T10:30:22.478Z,83.67
2023-04-11T10:32:35.002Z,83.43
2023-04-11T10:35:35.227Z,83.53
2023-04-11T10:37:49.345Z,83.66
2023-04-11T10:40:14.932Z,83.59
2023-04-11T10:42:47.842Z,83.60
2023-04-11T10:45:28.799Z,83.61
2023-04-11T10:47:42.168Z,83.51
2023-04-11T10:49:55.587Z,83.67
2023-04-11T10:52:25.280Z,83.76
2023-04-11T10:54:37.855Z,83.72
2023-04-11T10:57:03.492Z,83.92
2023-04-11T10:59:52.038Z,83.58
2023-04-11T11:02:05.503Z,83.76
2023-04-11T11:04:19.620Z,83.88
2023-04-11T11:06:32.410Z,83.67
2023-04-11T11:08:47.934Z,83.86
2023-04-11T11:11:05.815Z,84.01
2023-04-11T11:13:20.410Z,84.05
2023-04-11T11:15:35.208Z,84.03
2023-04-11T11:17:48.590Z,84.00
2023-04-11T11:20:01.012Z,84.01
2023-04-11T11:22:20.108Z,84.16
2023-04-11T11:24:32.947Z,84.09
2023-04-11T11:26:47.712Z,84.13
2023-04-11T11:29:01.210Z,84.10
2023-04-11T11:31:13.625Z,83.89
2023-04-11T11:33:27.634Z,83.96
2023-04-11T11:35:40.259Z,84.06
2023-04-11T11:37:53.168Z,84.00
2023-04-11T11:40:10.477Z,84.12
2023-04-11T11:42:23.587Z,84.00
2023-04-11T11:44:36.888Z,83.91
2023-04-11T11:47:06.778Z,83.75
2023-04-11T11:49:19.185Z,83.76
2023-04-11T11:51:42.154Z,83.70
2023-04-11T11:56:37.225Z,83.83
2023-04-11T11:58:52.961Z,83.68
2023-04-11T12:01:05.651Z,83.79
2023-04-11T12:03:22.119Z,83.78
2023-04-11T12:05:37.591Z,83.92
2023-04-11T12:07:50.176Z,83.78
2023-04-11T12:10:07.729Z,83.72
2023-04-11T12:12:20.595Z,83.89
2023-04-11T12:14:33.017Z,83.66
2023-04-11T12:16:46.151Z,83.66
2023-04-11T12:19:00.739Z,83.63
2023-04-11T12:21:13.526Z,83.49
2023-04-11T12:23:26.531Z,83.78
2023-04-11T12:25:39.087Z,83.27
2023-04-11T12:27:52.006Z,83.34
2023-04-11T12:30:05.168Z,83.05
2023-04-11T12:32:17.957Z,83.10
2023-04-11T12:34:30.464Z,83.12
2023-04-11T12:36:43.597Z,83.20
2023-04-11T12:38:56.304Z,83.05
2023-04-11T12:41:30.384Z,82.98
2023-04-11T12:43:41.587Z,82.95
2023-04-11T12:45:54.375Z,82.92
2023-04-11T12:48:06.892Z,82.99
2023-04-11T12:50:19.597Z,83.00
2023-04-11T12:52:33.062Z,83.11
2023-04-11T12:54:45.729Z,82.63
2023-04-11T12:56:59.453Z,82.81
2023-04-11T12:59:12.099Z,82.73
2023-04-11T13:01:24.637Z,82.76
2023-04-11T13:03:39.381Z,82.71
2023-04-11T13:05:53.686Z,82.71
2023-04-11T13:08:06.126Z,82.71
2023-04-11T13:10:19.123Z,82.42
2023-04-11T13:12:31.549Z,82.43
2023-04-11T13:14:43.936Z,82.41
2023-04-11T13:16:56.691Z,82.44
2023-04-11T13:19:09.158Z,82.52
2023-04-11T13:21:21.848Z,82.51
2023-04-11T13:23:34.460Z,82.59
2023-04-11T13:25:47.061Z,82.56
2023-04-11T13:27:59.494Z,82.52
2023-04-11T13:30:14.996Z,82.76
2023-04-11T13:32:27.466Z,82.56
2023-04-11T13:34:40.126Z,82.69
2023-04-11T13:36:52.938Z,82.53
2023-04-11T13:39:06.713Z,82.82
2023-04-11T13:41:19.746Z,82.67
2023-04-11T13:43:32.458Z,82.66
2023-04-11T13:45:44.973Z,82.68
2023-04-11T13:47:58.933Z,82.71
2023-04-11T13:50:14.138Z,82.66
2023-04-11T13:52:26.501Z,82.94
2023-04-11T13:54:39.217Z,83.02
2023-04-11T13:56:51.638Z,82.92
2023-04-11T13:59:04.074Z,82.75
2023-04-11T14:01:16.854Z,82.97
2023-04-11T14:03:34.073Z,83.11
2023-04-11T14:05:47.853Z,83.16
2023-04-11T14:08:00.264Z,82.99
2023-04-11T14:10:14.508Z,82.96
2023-04-11T14:12:27.008Z,83.26
2023-04-11T14:14:39.581Z,82.97
2023-04-11T14:16:52.477Z,83.13
2023-04-11T14:19:05.473Z,82.53
2023-04-11T14:21:18.173Z,82.62
2023-04-11T14:23:31.182Z,82.95
2023-04-11T14:25:43.554Z,82.79
2023-04-11T14:27:56.352Z,82.96
2023-04-11T14:30:09.929Z,83.12
2023-04-11T14:32:22.871Z,82.92
2023-04-11T14:34:35.474Z,83.08
2023-04-11T14:36:49.068Z,82.97
2023-04-11T14:39:01.714Z,82.76
2023-04-11T14:41:14.277Z,82.79
2023-04-11T14:43:26.838Z,82.90
2023-04-11T14:45:38.656Z,82.78
2023-04-11T14:47:51.760Z,82.82
2023-04-11T14:50:04.668Z,83.18
2023-04-11T14:52:17.252Z,82.82
2023-04-11T14:54:29.872Z,83.01
2023-04-11T14:56:42.536Z,83.06
2023-04-11T14:58:55.882Z,83.04
2023-04-11T15:01:08.615Z,83.14
2023-04-11T15:03:21.311Z,83.08
2023-04-11T15:05:34.029Z,83.02
2023-04-11T15:07:47.261Z,83.23
2023-04-11T15:09:59.778Z,83.03
2023-04-11T15:12:12.415Z,82.98
2023-04-11T15:14:30.255Z,82.92
2023-04-11T15:16:43.002Z,82.84
2023-04-11T15:18:55.800Z,82.89
2023-04-11T15:21:08.835Z,82.85
2023-04-11T15:23:21.783Z,82.65
2023-04-11T15:25:34.127Z,82.75
2023-04-11T15:27:47.178Z,82.78
2023-04-11T15:30:00.687Z,82.65
2023-04-11T15:32:13.321Z,83.03
2023-04-11T15:34:25.949Z,82.38
2023-04-11T15:36:39.511Z,82.20
2023-04-11T15:38:52.588Z,82.50
2023-04-11T15:41:05.044Z,82.34
2023-04-11T15:43:18.196Z,82.40
2023-04-11T15:45:30.629Z,82.47
2023-04-11T15:47:43.289Z,82.25
2023-04-11T15:49:56.226Z,82.32
2023-04-11T15:52:09.037Z,82.42
2023-04-11T15:54:21.672Z,82.52
2023-04-11T15:56:35.000Z,82.76
2023-04-11T15:58:48.131Z,82.58
2023-04-11T16:01:02.411Z,82.70
2023-04-11T16:03:15.403Z,82.89
2023-04-11T16:05:28.884Z,82.43
2023-04-11T16:07:41.472Z,82.46
2023-04-11T16:09:55.314Z,82.43
2023-04-11T16:12:08.569Z,82.64
2023-04-11T16:14:21.408Z,83.13
2023-04-11T16:16:34.277Z,83.19
2023-04-11T16:18:47.285Z,83.19
2023-04-11T16:21:00.028Z,82.58
2023-04-11T16:23:12.455Z,82.86
2023-04-11T16:25:25.021Z,82.86
2023-04-11T16:27:37.311Z,82.94
2023-04-11T16:29:50.358Z,83.04
2023-04-11T16:32:03.362Z,82.28
2023-04-11T16:34:16.363Z,82.29
2023-04-11T16:36:30.053Z,82.11
2023-04-11T16:38:42.797Z,82.01
2023-04-11T16:40:55.743Z,81.95
2023-04-11T16:43:08.164Z,81.73
2023-04-11T16:45:21.218Z,81.67
2023-04-11T16:47:33.655Z,81.39
2023-04-11T16:49:47.103Z,81.68
2023-04-11T16:51:59.989Z,81.44
2023-04-11T16:54:13.379Z,81.21
2023-04-11T16:56:27.773Z,81.40
2023-04-11T16:58:41.371Z,81.21
2023-04-11T17:00:54.458Z,81.20
2023-04-11T17:03:07.171Z,81.42
2023-04-11T17:05:21.151Z,81.47
2023-04-11T17:07:34.381Z,81.16
2023-04-11T17:09:50.181Z,80.97
2023-04-11T17:12:04.263Z,81.29
2023-04-11T17:14:17.047Z,81.44
2023-04-11T17:16:30.307Z,81.45
2023-04-11T17:18:42.962Z,80.36
2023-04-11T17:20:55.369Z,80.40
2023-04-11T17:23:08.530Z,80.30
2023-04-11T17:25:21.659Z,79.73
2023-04-11T17:27:34.128Z,79.79
2023-04-11T17:29:46.676Z,79.80
2023-04-11T17:31:59.503Z,79.67
2023-04-11T17:34:12.122Z,79.20
2023-04-11T17:36:25.532Z,79.35
2023-04-11T17:38:38.353Z,79.72
2023-04-11T17:40:51.333Z,79.20
2023-04-11T17:43:06.820Z,79.37
2023-04-11T17:45:20.327Z,79.40
2023-04-11T17:47:33.680Z,79.70
2023-04-11T17:49:47.148Z,79.40
2023-04-11T17:52:00.063Z,79.57
2023-04-11T17:54:12.657Z,79.63
2023-04-11T17:56:25.615Z,79.96
2023-04-11T17:58:39.411Z,79.33
2023-04-11T18:00:57.476Z,79.19
2023-04-11T18:03:12.538Z,79.02
2023-04-11T18:05:27.579Z,78.84
2023-04-11T18:07:43.083Z,78.75
2023-04-11T18:09:56.297Z,79.33
2023-04-11T18:12:08.839Z,78.10
2023-04-11T18:14:23.270Z,78.00
2023-04-11T18:16:39.396Z,77.25
2023-04-11T18:18:59.391Z,76.50
2023-04-11T18:21:16.020Z,76.23
2023-04-11T18:23:28.724Z,75.42
2023-04-11T18:25:43.129Z,72.72
2023-04-11T18:27:56.248Z,73.24
2023-04-11T18:30:11.284Z,73.88
2023-04-11T18:32:28.928Z,74.21
2023-04-11T18:34:45.513Z,74.04
2023-04-11T18:36:58.232Z,73.11
2023-04-11T18:39:11.336Z,73.18
2023-04-11T18:41:24.054Z,72.46
2023-04-11T18:43:38.388Z,71.85
2023-04-11T18:45:54.994Z,72.07
2023-04-11T18:48:08.201Z,71.80
2023-04-11T18:50:21.249Z,71.39
2023-04-11T18:52:34.969Z,71.19
2023-04-11T18:54:48.196Z,71.09
2023-04-11T18:57:00.694Z,70.93
2023-04-11T18:59:16.493Z,71.11
2023-04-11T19:01:31.413Z,70.96
2023-04-11T19:03:45.071Z,70.68
2023-04-11T19:05:59.293Z,70.52
2023-04-11T19:08:11.966Z,70.86
2023-04-11T19:10:25.355Z,70.26
2023-04-11T19:12:39.094Z,70.02
2023-04-11T19:14:54.060Z,69.91
2023-04-11T19:17:07.579Z,70.39
2023-04-11T19:19:23.106Z,70.49
2023-04-11T19:21:39.793Z,68.45
2023-04-11T19:23:53.408Z,69.16
2023-04-11T19:26:06.211Z,68.62
2023-04-11T19:28:19.006Z,67.92
2023-04-11T19:30:32.263Z,66.89
2023-04-11T19:32:48.443Z,66.84
2023-04-11T19:35:03.154Z,67.07
2023-04-11T19:37:17.639Z,66.98
2023-04-11T19:39:36.615Z,66.41
2023-04-11T19:41:52.542Z,66.68
2023-04-11T19:44:05.389Z,67.24
2023-04-11T19:46:19.623Z,66.77
2023-04-11T19:48:34.173Z,66.86
2023-04-11T19:50:48.025Z,66.68
2023-04-11T19:53:02.839Z,67.36
2023-04-11T19:55:17.133Z,67.74
2023-04-11T19:57:30.558Z,67.08
2023-04-11T19:59:43.276Z,66.00
2023-04-11T20:01:55.873Z,65.90
2023-04-11T20:04:08.366Z,65.65
2023-04-11T20:06:21.207Z,65.22
2023-04-11T20:08:33.708Z,65.17
2023-04-11T20:10:46.802Z,64.96
2023-04-11T20:13:00.444Z,65.10
2023-04-11T20:15:15.894Z,64.73
2023-04-11T20:17:28.725Z,64.65
2023-04-11T20:19:42.866Z,65.18
2023-04-11T20:21:56.711Z,65.87
2023-04-11T20:24:10.589Z,65.79
2023-04-11T20:26:23.568Z,64.79
2023-04-11T20:28:36.200Z,64.68
2023-04-11T20:30:48.989Z,64.75
2023-04-11T20:33:02.631Z,65.32
2023-04-11T20:35:16.570Z,65.12
2023-04-11T20:37:31.962Z,65.10
2023-04-11T20:39:44.669Z,64.86
2023-04-11T20:41:57.974Z,64.34
2023-04-11T20:44:10.939Z,64.33
2023-04-11T20:46:24.127Z,64.46
2023-04-11T20:48:36.669Z,64.20
2023-04-11T20:50:50.124Z,63.96
2023-04-11T20:53:03.441Z,63.29
2023-04-11T20:55:17.437Z,62.98
2023-04-11T20:57:31.903Z,62.51
2023-04-11T20:59:45.336Z,62.27
2023-04-11T21:01:58.292Z,62.05
2023-04-11T21:04:13.082Z,61.89
2023-04-11T21:06:27.241Z,61.63
2023-04-11T21:08:39.982Z,61.42
2023-04-11T21:10:52.803Z,61.59
2023-04-11T21:13:05.251Z,61.53
2023-04-11T21:15:18.614Z,61.25
2023-04-11T21:17:31.455Z,60.82
2023-04-11T21:19:44.269Z,59.18
2023-04-11T21:21:58.344Z,58.18
2023-04-11T21:24:12.494Z,57.77
2023-04-11T21:26:24.997Z,57.03
2023-04-11T21:28:38.465Z,57.30
2023-04-11T21:30:51.224Z,57.87
2023-04-11T21:33:03.907Z,58.03
2023-04-11T21:35:17.414Z,57.76
2023-04-11T21:37:29.973Z,57.68
2023-04-11T21:39:42.599Z,57.20
2023-04-11T21:41:55.171Z,56.81
2023-04-11T21:44:07.703Z,56.67
2023-04-11T21:46:20.917Z,56.19
2023-04-11T21:48:33.510Z,55.71
2023-04-11T21:50:46.522Z,55.14
2023-04-11T21:53:00.329Z,55.53
2023-04-11T21:55:14.379Z,55.33
2023-04-11T21:57:27.200Z,54.93
2023-04-11T21:59:42.652Z,55.22
2023-04-11T22:01:55.291Z,54.70
2023-04-11T22:04:11.898Z,54.18
2023-04-11T22:06:27.555Z,54.46
2023-04-11T22:08:40.458Z,54.60
2023-04-11T22:10:55.236Z,53.87
2023-04-11T22:13:07.754Z,53.24
2023-04-11T22:15:21.088Z,53.48
2023-04-11T22:17:33.918Z,53.26
2023-04-11T22:19:46.433Z,53.46
2023-04-11T22:21:59.111Z,53.50
2023-04-11T22:24:13.108Z,53.17
2023-04-11T22:26:27.539Z,53.82
2023-04-11T22:28:40.322Z,53.37
2023-04-11T22:30:53.001Z,54.09
2023-04-11T22:33:05.694Z,54.08
2023-04-11T22:35:18.567Z,54.88
2023-04-11T22:37:31.557Z,54.82
2023-04-11T22:39:44.351Z,54.97
2023-04-11T22:41:57.544Z,54.78
2023-04-11T22:44:10.700Z,54.72
2023-04-11T22:46:23.290Z,54.95
2023-04-11T22:48:37.440Z,54.98
2023-04-11T22:50:53.776Z,55.27
2023-04-11T22:53:10.662Z,55.52
2023-04-11T22:55:26.110Z,55.43
2023-04-11T22:57:38.954Z,55.62
2023-04-11T22:59:52.030Z,55.79
2023-04-11T23:02:04.631Z,55.43
2023-04-11T23:04:17.646Z,55.55
2023-04-11T23:06:30.673Z,55.67
2023-04-11T23:08:43.360Z,55.96
2023-04-11T23:10:56.157Z,55.95
2023-04-11T23:13:09.624Z,55.87
2023-04-11T23:15:23.807Z,56.79
2023-04-11T23:17:36.232Z,57.54
2023-04-11T23:19:49.131Z,57.68
2023-04-11T23:22:01.930Z,58.19
2023-04-11T23:24:15.743Z,59.18
2023-04-11T23:26:29.162Z,59.73
2023-04-11T23:28:41.982Z,59.00
2023-04-11T23:30:54.876Z,59.98
2023-04-11T23:33:09.557Z,59.79
2023-04-11T23:35:22.279Z,59.67
2023-04-11T23:37:35.055Z,59.46
2023-04-11T23:39:47.781Z,60.05
2023-04-11T23:42:00.984Z,59.01
2023-04-11T23:44:13.921Z,58.66
2023-04-11T23:46:27.385Z,58.83
2023-04-11T23:48:40.340Z,59.15
2023-04-11T23:50:53.401Z,58.80
2023-04-11T23:53:06.019Z,59.22
2023-04-11T23:55:18.753Z,59.83
2023-04-11T23:57:32.044Z,60.01
2023-04-11T23:59:44.650Z,59.53
